createdAt,value
2023-02-16T00:00:29.895Z,19.40
2023-02-16T00:02:57.103Z,19.77
2023-02-16T00:05:29.815Z,16.98
2023-02-16T00:07:58.432Z,25.38
2023-02-16T00:10:28.681Z,19.70
2023-02-16T00:13:14.029Z,19.88
2023-02-16T00:15:41.531Z,21.27
2023-02-16T00:18:21.729Z,20.45
2023-02-16T00:20:49.161Z,22.90
2023-02-16T00:23:16.544Z,18.85
2023-02-16T00:25:43.373Z,19.08
2023-02-16T00:28:17.763Z,22.05
2023-02-16T00:30:45.401Z,18.27
2023-02-16T00:33:19.051Z,20.70
2023-02-16T00:35:46.037Z,21.25
2023-02-16T00:38:13.470Z,18.42
2023-02-16T00:40:41.768Z,23.33
2023-02-16T00:43:25.074Z,20.88
2023-02-16T00:45:52.283Z,18.33
2023-02-16T00:48:19.467Z,18.35
2023-02-16T00:50:46.524Z,21.27
2023-02-16T00:53:13.728Z,18.92
2023-02-16T00:55:42.888Z,16.23
2023-02-16T00:58:24.280Z,17.83
2023-02-16T01:00:54.157Z,21.17
2023-02-16T01:03:27.666Z,20.23
2023-02-16T01:06:14.581Z,20.95
2023-02-16T01:09:00.890Z,19.63
2023-02-16T01:11:28.330Z,18.45
2023-02-16T01:13:56.830Z,19.02
2023-02-16T01:16:37.457Z,18.15
2023-02-16T01:19:05.158Z,20.08
2023-02-16T01:21:31.961Z,18.65
2023-02-16T01:24:01.532Z,16.60
2023-02-16T01:26:29.485Z,20.90
2023-02-16T01:28:56.232Z,17.38
2023-02-16T01:31:23.054Z,19.17
2023-02-16T01:33:50.740Z,16.98
2023-02-16T01:36:26.341Z,17.95
2023-02-16T01:38:53.098Z,20.77
2023-02-16T01:41:56.466Z,18.25
2023-02-16T01:44:36.162Z,17.90
2023-02-16T01:47:26.349Z,18.08
2023-02-16T01:49:53.139Z,18.23
2023-02-16T01:52:28.562Z,18.08
2023-02-16T01:55:10.202Z,17.10
2023-02-16T01:57:43.288Z,16.80
2023-02-16T02:00:10.474Z,17.75
2023-02-16T02:02:52.478Z,16.70
2023-02-16T02:05:36.433Z,17.15
2023-02-16T02:08:24.876Z,15.45
2023-02-16T02:11:04.639Z,17.33
2023-02-16T02:13:49.816Z,15.80
2023-02-16T02:16:21.378Z,16.83
2023-02-16T02:18:48.863Z,17.40
2023-02-16T02:22:12.514Z,17.23
2023-02-16T02:25:10.019Z,20.25
2023-02-16T02:28:01.722Z,15.88
2023-02-16T02:31:10.134Z,15.70
2023-02-16T02:33:59.662Z,15.75
2023-02-16T02:36:41.660Z,14.05
2023-02-16T02:39:19.930Z,15.45
2023-02-16T02:42:05.465Z,15.07
2023-02-16T02:44:50.090Z,15.73
2023-02-16T02:47:17.164Z,14.20
2023-02-16T02:49:54.825Z,15.57
2023-02-16T02:52:22.347Z,15.73
2023-02-16T02:55:13.390Z,16.35
2023-02-16T02:58:01.191Z,16.10
2023-02-16T03:00:43.945Z,16.92
2023-02-16T03:03:33.783Z,13.95
2023-02-16T03:06:05.858Z,14.55
2023-02-16T03:08:35.842Z,14.90
2023-02-16T03:11:31.836Z,13.27
2023-02-16T03:14:06.787Z,13.00
2023-02-16T03:16:45.079Z,13.50
2023-02-16T03:19:34.036Z,12.55
2023-02-16T03:22:20.794Z,13.43
2023-02-16T03:25:06.216Z,13.25
2023-02-16T03:27:56.455Z,14.65
2023-02-16T03:30:25.700Z,11.70
2023-02-16T03:32:53.187Z,12.50
2023-02-16T03:35:20.839Z,14.75
2023-02-16T03:37:47.998Z,11.63
2023-02-16T03:40:29.441Z,13.30
2023-02-16T03:42:59.044Z,12.73
2023-02-16T03:45:26.324Z,11.38
2023-02-16T03:47:53.640Z,14.27
2023-02-16T03:50:20.741Z,13.02
2023-02-16T03:52:48.060Z,13.93
2023-02-16T03:55:15.393Z,11.50
2023-02-16T03:57:42.101Z,13.55
2023-02-16T04:00:09.417Z,11.35
2023-02-16T04:02:43.521Z,13.57
2023-02-16T04:05:10.272Z,13.52
2023-02-16T04:07:36.979Z,12.20
2023-02-16T04:10:03.878Z,11.15
2023-02-16T04:12:36.626Z,14.63
2023-02-16T04:15:06.468Z,14.77
2023-02-16T04:17:33.189Z,15.02
2023-02-16T04:19:59.993Z,16.02
2023-02-16T04:22:26.846Z,16.52
2023-02-16T04:24:53.604Z,15.55
2023-02-16T04:27:20.358Z,16.70
2023-02-16T04:29:47.184Z,15.05
2023-02-16T04:32:13.969Z,12.07
2023-02-16T04:34:40.812Z,12.75
2023-02-16T04:37:07.589Z,12.25
2023-02-16T04:39:35.708Z,13.30
2023-02-16T04:42:02.897Z,15.02
2023-02-16T04:44:29.667Z,14.57
2023-02-16T04:46:56.402Z,13.45
2023-02-16T04:49:23.208Z,14.65
2023-02-16T04:51:49.986Z,13.23
2023-02-16T04:54:16.863Z,12.95
2023-02-16T04:56:45.341Z,13.68
2023-02-16T04:59:12.374Z,14.35
2023-02-16T05:01:39.231Z,14.75
2023-02-16T05:04:06.558Z,14.05
2023-02-16T05:06:33.334Z,17.38
2023-02-16T05:09:00.130Z,10.95
2023-02-16T05:11:45.493Z,18.92
2023-02-16T05:14:39.126Z,13.38
2023-02-16T05:17:05.832Z,13.27
2023-02-16T05:19:32.621Z,14.82
2023-02-16T05:21:59.514Z,16.23
2023-02-16T05:24:28.438Z,15.80
2023-02-16T05:26:55.682Z,13.57
2023-02-16T05:29:22.540Z,16.40
2023-02-16T05:31:49.400Z,15.40
2023-02-16T05:34:16.203Z,15.13
2023-02-16T05:36:42.921Z,14.55
2023-02-16T05:39:09.686Z,12.50
2023-02-16T05:41:36.506Z,15.60
2023-02-16T05:44:04.281Z,13.77
2023-02-16T05:46:34.062Z,14.43
2023-02-16T05:49:02.086Z,16.15
2023-02-16T05:51:29.185Z,14.40
2023-02-16T05:53:56.257Z,16.45
2023-02-16T05:56:23.661Z,15.70
2023-02-16T05:58:50.793Z,19.15
2023-02-16T06:01:17.903Z,15.57
2023-02-16T06:03:44.894Z,18.98
2023-02-16T06:06:12.378Z,19.27
2023-02-16T06:08:39.339Z,18.45
2023-02-16T06:11:07.098Z,17.80
2023-02-16T06:13:34.400Z,19.95
2023-02-16T06:16:01.401Z,16.55
2023-02-16T06:18:28.165Z,19.70
2023-02-16T06:20:57.068Z,18.75
2023-02-16T06:23:24.002Z,17.30
2023-02-16T06:25:53.931Z,17.92
2023-02-16T06:28:20.672Z,22.23
2023-02-16T06:30:47.393Z,18.05
2023-02-16T06:33:14.136Z,15.05
2023-02-16T06:35:40.882Z,17.85
2023-02-16T06:38:07.614Z,17.85
2023-02-16T06:40:34.302Z,15.45
2023-02-16T06:43:01.016Z,18.73
2023-02-16T06:45:27.880Z,19.92
2023-02-16T06:47:54.588Z,17.95
2023-02-16T06:50:21.389Z,18.05
2023-02-16T06:52:48.083Z,17.45
2023-02-16T06:55:14.907Z,16.63
2023-02-16T06:57:41.606Z,16.63
2023-02-16T07:00:09.185Z,21.33
2023-02-16T07:02:35.971Z,20.67
2023-02-16T07:05:03.296Z,20.27
2023-02-16T07:07:31.178Z,16.05
2023-02-16T07:09:58.255Z,17.40
2023-02-16T07:12:25.011Z,15.57
2023-02-16T07:14:51.768Z,16.70
2023-02-16T07:17:18.482Z,16.58
2023-02-16T07:19:45.255Z,17.25
2023-02-16T07:22:12.286Z,17.38
2023-02-16T07:24:39.002Z,18.60
2023-02-16T07:27:06.076Z,19.35
2023-02-16T07:29:32.800Z,19.48
2023-02-16T07:31:59.624Z,21.45
2023-02-16T07:34:26.563Z,16.25
2023-02-16T07:36:53.304Z,16.60
2023-02-16T07:39:20.031Z,17.00
2023-02-16T07:41:46.839Z,18.08
2023-02-16T07:44:17.863Z,17.55
2023-02-16T07:46:44.580Z,26.92
2023-02-16T07:49:11.304Z,17.55
2023-02-16T07:51:38.012Z,20.50
2023-02-16T07:54:04.772Z,20.42
2023-02-16T07:56:35.028Z,18.42
2023-02-16T07:59:03.167Z,20.35
2023-02-16T08:01:30.412Z,18.05
2023-02-16T08:03:57.382Z,21.25
2023-02-16T08:06:24.567Z,22.00
2023-02-16T08:08:51.337Z,21.25
2023-02-16T08:11:23.952Z,20.85
2023-02-16T08:13:51.590Z,24.27
2023-02-16T08:16:24.083Z,18.70
2023-02-16T08:18:52.326Z,22.13
2023-02-16T08:21:22.020Z,24.45
2023-02-16T08:23:57.125Z,20.25
2023-02-16T08:26:27.298Z,19.00
2023-02-16T08:28:56.444Z,21.25
2023-02-16T08:31:25.560Z,22.38
2023-02-16T08:33:54.967Z,21.95
2023-02-16T08:36:32.757Z,19.90
2023-02-16T08:39:00.929Z,17.45
2023-02-16T08:41:36.849Z,18.17
2023-02-16T08:44:06.271Z,19.35
2023-02-16T08:46:34.166Z,15.65
2023-02-16T08:49:01.436Z,16.08
2023-02-16T08:51:30.511Z,17.95
2023-02-16T08:54:01.526Z,16.33
2023-02-16T08:56:32.912Z,14.98
2023-02-16T08:59:00.417Z,18.95
2023-02-16T09:01:27.694Z,19.65
2023-02-16T09:03:54.905Z,15.10
2023-02-16T09:06:22.650Z,15.10
2023-02-16T09:08:54.467Z,13.02
2023-02-16T09:11:22.312Z,18.90
2023-02-16T09:13:49.666Z,13.60
2023-02-16T09:16:18.995Z,16.70
2023-02-16T09:18:47.142Z,15.57
2023-02-16T09:21:16.819Z,16.73
2023-02-16T09:23:48.154Z,15.25
2023-02-16T09:26:16.625Z,13.20
2023-02-16T09:28:43.929Z,13.25
2023-02-16T09:31:25.386Z,13.00
2023-02-16T09:33:54.436Z,14.57
2023-02-16T09:36:21.250Z,11.13
2023-02-16T09:38:49.087Z,13.00
2023-02-16T09:41:40.973Z,12.50
2023-02-16T09:44:10.422Z,11.63
2023-02-16T09:46:38.889Z,11.90
2023-02-16T09:49:06.514Z,10.70
2023-02-16T09:51:39.036Z,10.32
2023-02-16T09:54:21.737Z,10.52
2023-02-16T09:56:56.686Z,11.45
2023-02-16T09:59:54.138Z,12.00
2023-02-16T10:02:59.463Z,11.70
2023-02-16T10:06:01.141Z,10.82
2023-02-16T10:08:40.987Z,16.25
2023-02-16T10:11:40.638Z,12.45
2023-02-16T10:14:24.424Z,10.45
2023-02-16T10:17:07.838Z,13.70
2023-02-16T10:20:05.245Z,12.82
2023-02-16T10:22:49.156Z,12.25
2023-02-16T10:25:24.102Z,11.10
2023-02-16T10:28:01.222Z,10.77
2023-02-16T10:30:31.514Z,12.63
2023-02-16T10:33:17.722Z,13.20
2023-02-16T10:35:51.374Z,8.45
2023-02-16T10:38:24.766Z,10.27
2023-02-16T10:41:03.956Z,9.93
2023-02-16T10:43:56.839Z,12.05
2023-02-16T10:46:26.575Z,9.35
2023-02-16T10:48:55.038Z,9.65
2023-02-16T10:51:28.179Z,10.95
2023-02-16T10:54:05.715Z,10.50
2023-02-16T10:56:46.141Z,9.98
2023-02-16T10:59:34.420Z,8.73
2023-02-16T11:02:04.221Z,8.85
2023-02-16T11:04:36.588Z,10.55
2023-02-16T11:07:05.307Z,8.23
2023-02-16T11:09:33.066Z,7.55
2023-02-16T11:12:00.805Z,14.20
2023-02-16T11:14:30.934Z,8.57
2023-02-16T11:17:13.766Z,7.53
2023-02-16T11:19:50.442Z,9.40
2023-02-16T11:22:41.439Z,10.90
2023-02-16T11:25:27.434Z,10.48
2023-02-16T11:28:00.228Z,8.65
2023-02-16T11:30:37.702Z,9.88
2023-02-16T11:33:31.724Z,11.45
2023-02-16T11:35:58.547Z,9.90
2023-02-16T11:38:28.374Z,8.13
2023-02-16T11:40:56.084Z,9.75
2023-02-16T11:43:31.099Z,8.55
2023-02-16T11:46:21.300Z,8.75
2023-02-16T11:48:48.767Z,7.38
2023-02-16T11:51:28.421Z,9.10
2023-02-16T11:54:05.008Z,7.25
2023-02-16T11:56:34.333Z,8.27
2023-02-16T11:59:21.686Z,7.20
2023-02-16T12:02:33.501Z,7.45
2023-02-16T12:05:35.071Z,7.38
2023-02-16T12:08:13.897Z,9.65
2023-02-16T12:11:01.302Z,8.45
2023-02-16T12:14:25.009Z,6.63
2023-02-16T12:17:13.126Z,7.03
2023-02-16T12:19:46.632Z,8.15
2023-02-16T12:22:34.557Z,4.40
2023-02-16T12:25:36.814Z,7.15
2023-02-16T12:28:40.149Z,4.75
2023-02-16T12:31:22.696Z,7.00
2023-02-16T12:34:07.432Z,6.15
2023-02-16T12:37:02.077Z,8.57
2023-02-16T12:39:39.433Z,9.75
2023-02-16T12:42:15.329Z,6.50
2023-02-16T12:45:06.561Z,5.22
2023-02-16T12:47:39.837Z,7.03
2023-02-16T12:50:24.232Z,7.25
2023-02-16T12:52:57.854Z,7.20
2023-02-16T12:55:33.591Z,3.70
2023-02-16T12:58:04.245Z,4.65
2023-02-16T13:00:47.719Z,5.25
2023-02-16T13:03:35.217Z,6.28
2023-02-16T13:06:20.062Z,9.05
2023-02-16T13:09:11.394Z,8.02
2023-02-16T13:11:49.761Z,7.15
2023-02-16T13:14:25.133Z,8.70
2023-02-16T13:17:19.289Z,6.88
2023-02-16T13:19:47.209Z,4.30
2023-02-16T13:22:29.673Z,5.07
2023-02-16T13:25:24.867Z,3.70
2023-02-16T13:28:34.952Z,5.82
2023-02-16T13:31:15.563Z,3.28
2023-02-16T13:34:11.991Z,16.20
2023-02-16T13:36:47.267Z,4.03
2023-02-16T13:39:56.253Z,10.30
2023-02-16T13:43:01.082Z,4.03
2023-02-16T13:45:32.189Z,5.30
2023-02-16T13:48:00.186Z,7.20
2023-02-16T13:50:33.666Z,6.53
2023-02-16T13:53:19.374Z,3.42
2023-02-16T13:55:47.152Z,10.48
2023-02-16T13:58:13.958Z,5.60
2023-02-16T14:00:48.476Z,6.22
2023-02-16T14:03:19.346Z,3.53
2023-02-16T14:05:53.901Z,5.05
2023-02-16T14:08:29.286Z,4.10
2023-02-16T14:11:00.738Z,6.72
2023-02-16T14:13:30.244Z,5.25
2023-02-16T14:16:01.350Z,7.07
2023-02-16T14:18:33.971Z,3.58
2023-02-16T14:21:06.674Z,3.85
2023-02-16T14:23:35.214Z,5.32
2023-02-16T14:26:07.850Z,3.35
2023-02-16T14:28:37.225Z,4.95
2023-02-16T14:31:14.846Z,4.18
2023-02-16T14:34:07.332Z,7.25
2023-02-16T14:36:34.288Z,3.63
2023-02-16T14:39:01.566Z,4.22
2023-02-16T14:41:35.186Z,7.68
2023-02-16T14:44:04.977Z,3.05
2023-02-16T14:46:47.058Z,4.28
2023-02-16T14:49:55.153Z,7.38
2023-02-16T14:52:40.197Z,3.65
2023-02-16T14:55:16.163Z,4.05
2023-02-16T14:57:58.506Z,3.90
2023-02-16T15:00:52.458Z,3.83
2023-02-16T15:03:25.589Z,5.55
2023-02-16T15:08:34.803Z,7.00
2023-02-16T15:11:19.982Z,6.97
2023-02-16T15:13:51.743Z,5.07
2023-02-16T15:16:20.653Z,5.78
2023-02-16T15:18:54.015Z,9.93
2023-02-16T15:21:26.797Z,4.75
2023-02-16T15:23:56.004Z,5.07
2023-02-16T15:26:30.846Z,5.10
2023-02-16T15:29:00.379Z,6.97
2023-02-16T15:31:45.532Z,4.55
2023-02-16T15:34:14.982Z,5.90
2023-02-16T15:36:44.692Z,6.05
2023-02-16T15:39:40.891Z,4.43
2023-02-16T15:42:22.419Z,4.00
2023-02-16T15:44:49.417Z,7.10
2023-02-16T15:47:25.160Z,4.32
2023-02-16T15:49:53.991Z,4.53
2023-02-16T15:52:32.484Z,5.28
2023-02-16T15:55:01.867Z,7.13
2023-02-16T15:57:38.490Z,4.47
2023-02-16T16:00:19.498Z,4.72
2023-02-16T16:02:58.384Z,5.05
2023-02-16T16:05:29.155Z,5.22
2023-02-16T16:07:57.310Z,7.32
2023-02-16T16:10:32.500Z,8.27
2023-02-16T16:13:26.672Z,4.90
2023-02-16T16:15:59.685Z,4.82
2023-02-16T16:18:41.112Z,5.45
2023-02-16T16:21:34.009Z,5.57
2023-02-16T16:24:05.445Z,3.70
2023-02-16T16:26:52.395Z,7.22
2023-02-16T16:29:41.404Z,5.97
2023-02-16T16:32:28.581Z,11.65
2023-02-16T16:34:55.432Z,7.10
2023-02-16T16:37:27.936Z,11.95
2023-02-16T16:40:08.289Z,4.13
2023-02-16T16:42:39.312Z,6.90
2023-02-16T16:45:34.098Z,5.35
2023-02-16T16:48:06.805Z,7.30
2023-02-16T16:50:38.383Z,6.35
2023-02-16T16:53:27.970Z,4.63
2023-02-16T16:55:56.802Z,6.70
2023-02-16T16:58:25.109Z,7.10
2023-02-16T17:01:08.867Z,6.53
2023-02-16T17:03:51.716Z,3.83
2023-02-16T17:06:25.118Z,6.07
2023-02-16T17:09:12.166Z,4.47
2023-02-16T17:11:46.471Z,10.48
2023-02-16T17:14:16.893Z,7.57
2023-02-16T17:16:46.108Z,4.07
2023-02-16T17:19:15.394Z,6.53
2023-02-16T17:21:43.750Z,7.82
2023-02-16T17:24:11.848Z,7.15
2023-02-16T17:26:38.659Z,5.72
2023-02-16T17:29:10.208Z,5.05
2023-02-16T17:31:37.030Z,5.60
2023-02-16T17:34:04.526Z,7.47
2023-02-16T17:36:33.481Z,8.40
2023-02-16T17:39:00.211Z,9.05
2023-02-16T17:41:29.610Z,7.00
2023-02-16T17:43:57.328Z,6.93
2023-02-16T17:46:25.491Z,6.07
2023-02-16T17:48:55.049Z,10.90
2023-02-16T17:51:23.814Z,8.02
2023-02-16T17:53:50.898Z,8.55
2023-02-16T17:56:21.213Z,7.55
2023-02-16T17:58:48.040Z,8.23
2023-02-16T18:01:16.884Z,8.15
2023-02-16T18:03:43.756Z,6.82
2023-02-16T18:06:17.520Z,7.85
2023-02-16T18:08:47.313Z,5.32
2023-02-16T18:11:14.412Z,10.65
2023-02-16T18:13:41.166Z,9.02
2023-02-16T18:16:10.534Z,9.45
2023-02-16T18:18:39.340Z,7.82
2023-02-16T18:21:06.505Z,9.07
2023-02-16T18:23:33.850Z,15.55
2023-02-16T18:26:00.851Z,11.20
2023-02-16T18:28:36.013Z,12.10
2023-02-16T18:31:06.284Z,6.93
2023-02-16T18:33:34.677Z,9.88
2023-02-16T18:36:02.157Z,8.25
2023-02-16T18:38:28.988Z,8.23
2023-02-16T18:40:55.953Z,8.93
2023-02-16T18:43:23.833Z,8.50
2023-02-16T18:45:50.996Z,6.90
2023-02-16T18:48:17.884Z,6.55
2023-02-16T18:50:47.068Z,7.28
2023-02-16T18:53:14.273Z,6.13
2023-02-16T18:55:43.422Z,8.45
2023-02-16T18:58:13.454Z,8.23
2023-02-16T19:00:40.792Z,8.43
2023-02-16T19:03:07.690Z,9.77
2023-02-16T19:05:34.896Z,6.53
2023-02-16T19:08:01.645Z,7.53
2023-02-16T19:10:28.572Z,7.63
2023-02-16T19:12:56.026Z,6.35
2023-02-16T19:15:22.986Z,5.75
2023-02-16T19:17:53.174Z,5.97
2023-02-16T19:20:20.566Z,5.93
2023-02-16T19:22:48.761Z,7.30
2023-02-16T19:25:16.177Z,6.25
2023-02-16T19:27:43.653Z,7.32
2023-02-16T19:30:11.400Z,7.22
2023-02-16T19:32:40.950Z,17.20
2023-02-16T19:35:11.769Z,7.45
2023-02-16T19:37:41.048Z,7.70
2023-02-16T19:40:10.246Z,5.50
2023-02-16T19:42:38.552Z,9.25
2023-02-16T19:45:05.956Z,7.70
2023-02-16T19:47:32.953Z,6.45
2023-02-16T19:49:59.662Z,7.93
2023-02-16T19:52:26.470Z,10.00
2023-02-16T19:54:53.314Z,9.32
2023-02-16T19:57:20.905Z,7.20
2023-02-16T19:59:47.847Z,6.13
2023-02-16T20:02:15.614Z,5.60
2023-02-16T20:04:44.326Z,7.93
2023-02-16T20:07:11.155Z,5.78
2023-02-16T20:09:41.055Z,7.95
2023-02-16T20:12:08.254Z,6.10
2023-02-16T20:14:40.387Z,6.82
2023-02-16T20:17:07.153Z,6.18
2023-02-16T20:19:38.133Z,7.90
2023-02-16T20:22:04.897Z,7.22
2023-02-16T20:25:08.533Z,4.57
2023-02-16T20:28:25.853Z,5.53
2023-02-16T20:31:11.053Z,7.63
2023-02-16T20:41:50.964Z,6.00
2023-02-16T20:44:20.137Z,8.35
2023-02-16T20:55:19.271Z,7.78
2023-02-16T20:57:46.002Z,6.68
2023-02-16T21:00:22.656Z,4.47
2023-02-16T21:02:53.315Z,5.72
2023-02-16T21:05:23.167Z,6.13
2023-02-16T21:07:53.357Z,4.97
2023-02-16T21:10:25.688Z,5.32
2023-02-16T21:15:51.589Z,7.22
2023-02-16T21:18:30.040Z,6.40
2023-02-16T21:21:15.203Z,5.10
2023-02-16T21:23:43.671Z,5.25
2023-02-16T21:26:13.618Z,8.13
2023-02-16T21:28:41.926Z,7.75
2023-02-16T21:31:12.196Z,9.25
2023-02-16T21:33:39.194Z,5.32
2023-02-16T21:36:08.751Z,8.85
2023-02-16T21:38:36.325Z,5.10
2023-02-16T21:41:24.840Z,5.07
2023-02-16T21:44:07.810Z,7.80
2023-02-16T21:46:39.000Z,5.47
2023-02-16T21:49:09.253Z,5.55
2023-02-16T21:51:39.474Z,8.80
2023-02-16T21:54:16.054Z,6.55
2023-02-16T21:56:59.197Z,6.85
2023-02-16T21:59:25.980Z,5.68
2023-02-16T22:01:54.965Z,7.40
2023-02-16T22:04:22.779Z,5.50
2023-02-16T22:06:51.157Z,10.93
2023-02-16T22:09:21.800Z,6.05
2023-02-16T22:11:49.447Z,8.93
2023-02-16T22:14:16.279Z,9.20
2023-02-16T22:16:45.402Z,7.10
2023-02-16T22:19:13.794Z,9.50
2023-02-16T22:21:42.418Z,7.70
2023-02-16T22:24:12.423Z,4.72
2023-02-16T22:26:39.195Z,6.57
2023-02-16T22:29:08.044Z,8.00
2023-02-16T22:31:35.669Z,5.80
2023-02-16T22:34:07.870Z,4.93
2023-02-16T22:36:35.694Z,6.63
2023-02-16T22:39:02.604Z,6.60
2023-02-16T22:41:29.284Z,5.32
2023-02-16T22:43:57.227Z,5.57
2023-02-16T22:46:24.578Z,6.88
2023-02-16T22:48:52.086Z,6.50
2023-02-16T22:51:20.050Z,4.97
2023-02-16T22:53:47.058Z,5.53
2023-02-16T22:56:16.553Z,7.60
2023-02-16T22:58:44.007Z,8.00
2023-02-16T23:01:12.802Z,6.93
2023-02-16T23:03:39.891Z,5.30
2023-02-16T23:06:14.593Z,9.52
2023-02-16T23:08:42.244Z,5.63
2023-02-16T23:11:08.998Z,5.22
2023-02-16T23:13:35.874Z,5.07
2023-02-16T23:16:05.484Z,6.07
2023-02-16T23:18:32.489Z,5.85
2023-02-16T23:21:20.478Z,6.90
2023-02-16T23:23:48.799Z,5.60
2023-02-16T23:26:16.627Z,4.78
2023-02-16T23:28:44.266Z,8.68
2023-02-16T23:31:12.673Z,9.70
2023-02-16T23:33:39.757Z,7.82
2023-02-16T23:36:07.125Z,8.80
2023-02-16T23:38:34.032Z,5.82
2023-02-16T23:41:06.974Z,7.20
2023-02-16T23:43:33.755Z,5.45
2023-02-16T23:46:01.553Z,9.20
2023-02-16T23:48:29.142Z,8.43
2023-02-16T23:50:56.044Z,5.03
2023-02-16T23:53:24.373Z,8.02
2023-02-16T23:56:03.141Z,8.18
2023-02-16T23:58:32.762Z,4.15
